UAL401 MRLB-KIAH
Flight info
| Callsign | UAL401 |
|---|---|
| Flight time | N/A |
| Altitude | 34000 |
| Route | LISPA1V LISPA DCT BZE/N0452F360 UB753 TUGET DCT AVOMA DCT DUTNA L208 PEGLG SOULL1 |
| Aircraft | B739/M-SDE2E3FGHIRWXY/LB1 |
Departure
| Time | 2026-05-07 21:36 |
|---|---|
| Airport | Daniel Oduber Quirós International Airport (MRLB) |
Arrival
| Time | N/A |
|---|---|
| Airport | George Bush Intercontinental Airport (KIAH) |
| Time | Latitude | Longitude | Altitude | Speed | Heading |
|---|---|---|---|---|---|
| 2026-05-07 21:13 | 10.59993 | -85.53570 | 326 ft | 0 kts | 340° |
| 2026-05-07 21:29 | 10.59986 | -85.53567 | 280 ft | 4 kts | 340° |
| 2026-05-07 21:30 | 10.59961 | -85.53558 | 280 ft | 4 kts | 340° |
| 2026-05-07 21:30 | 10.59935 | -85.53549 | 280 ft | 4 kts | 348° |
| 2026-05-07 21:30 | 10.59909 | -85.53547 | 280 ft | 4 kts | 13° |
| 2026-05-07 21:30 | 10.59887 | -85.53558 | 280 ft | 4 kts | 62° |
| 2026-05-07 21:31 | 10.59885 | -85.53563 | 280 ft | 1 kts | 70° |
| 2026-05-07 21:34 | 10.59888 | -85.53555 | 282 ft | 4 kts | 70° |
| 2026-05-07 21:34 | 10.59906 | -85.53505 | 280 ft | 11 kts | 69° |
| 2026-05-07 21:34 | 10.59938 | -85.53416 | 283 ft | 14 kts | 69° |
| 2026-05-07 21:35 | 10.59910 | -85.53340 | 280 ft | 13 kts | 161° |
| 2026-05-07 21:35 | 10.59826 | -85.53308 | 278 ft | 13 kts | 160° |
| 2026-05-07 21:35 | 10.59747 | -85.53310 | 280 ft | 13 kts | 238° |
| 2026-05-07 21:35 | 10.59716 | -85.53395 | 282 ft | 14 kts | 250° |
| 2026-05-07 21:36 | 10.59618 | -85.53671 | 281 ft | 74 kts | 250° |
| 2026-05-07 21:36 | 10.59371 | -85.54360 | 277 ft | 131 kts | 251° |
| 2026-05-07 21:36 | 10.59049 | -85.55374 | 412 ft | 160 kts | 253° |
| 2026-05-07 21:36 | 10.58686 | -85.56394 | 1038 ft | 154 kts | 249° |
| 2026-05-07 21:37 | 10.58283 | -85.57444 | 1358 ft | 171 kts | 245° |
| 2026-05-07 21:37 | 10.57849 | -85.58602 | 1819 ft | 178 kts | 246° |
| 2026-05-07 21:37 | 10.57390 | -85.59834 | 2154 ft | 197 kts | 246° |
| 2026-05-07 21:37 | 10.56882 | -85.61214 | 2371 ft | 221 kts | 248° |
| 2026-05-07 21:38 | 10.56303 | -85.62756 | 2557 ft | 242 kts | 247° |
| 2026-05-07 21:38 | 10.55809 | -85.64420 | 2918 ft | 256 kts | 263° |
| 2026-05-07 21:38 | 10.56059 | -85.66235 | 3454 ft | 265 kts | 297° |
| 2026-05-07 21:38 | 10.57227 | -85.67598 | 4216 ft | 254 kts | 330° |
| 2026-05-07 21:39 | 10.58859 | -85.68241 | 4878 ft | 255 kts | 357° |
| 2026-05-07 21:39 | 10.60592 | -85.68029 | 5442 ft | 255 kts | 24° |
| 2026-05-07 21:39 | 10.61968 | -85.66971 | 6120 ft | 249 kts | 57° |
| 2026-05-07 21:39 | 10.62733 | -85.65393 | 6750 ft | 251 kts | 68° |
| 2026-05-07 21:40 | 10.63442 | -85.63745 | 7372 ft | 256 kts | 67° |
| 2026-05-07 21:40 | 10.64191 | -85.62089 | 7981 ft | 260 kts | 65° |
| 2026-05-07 21:40 | 10.64953 | -85.60430 | 8726 ft | 258 kts | 66° |
| 2026-05-07 21:40 | 10.65705 | -85.58767 | 9427 ft | 259 kts | 66° |
| 2026-05-07 21:41 | 10.66448 | -85.57086 | 10057 ft | 261 kts | 66° |
| 2026-05-07 21:41 | 10.67258 | -85.55430 | 10675 ft | 264 kts | 54° |
| 2026-05-07 21:41 | 10.68685 | -85.54227 | 11190 ft | 276 kts | 26° |
| 2026-05-07 21:41 | 10.70629 | -85.53759 | 11367 ft | 302 kts | 6° |
| 2026-05-07 21:42 | 10.72801 | -85.53652 | 11534 ft | 323 kts | 4° |
| 2026-05-07 21:42 | 10.75113 | -85.53582 | 11680 ft | 342 kts | 4° |
| 2026-05-07 21:42 | 10.77548 | -85.53512 | 11949 ft | 355 kts | 4° |
| 2026-05-07 21:42 | 10.80052 | -85.53430 | 12436 ft | 361 kts | 4° |
| 2026-05-07 21:43 | 10.82554 | -85.53338 | 13053 ft | 362 kts | 4° |
| 2026-05-07 21:43 | 10.85089 | -85.53236 | 13619 ft | 366 kts | 5° |
| 2026-05-07 21:43 | 10.87647 | -85.53128 | 14135 ft | 370 kts | 5° |
| 2026-05-07 21:43 | 10.90227 | -85.53020 | 14686 ft | 372 kts | 5° |
| 2026-05-07 21:44 | 10.92823 | -85.52911 | 15230 ft | 375 kts | 5° |
| 2026-05-07 21:44 | 10.95436 | -85.52802 | 15773 ft | 377 kts | 5° |
| 2026-05-07 21:44 | 10.98033 | -85.52694 | 16313 ft | 380 kts | 5° |
| 2026-05-07 21:44 | 11.00687 | -85.52584 | 16825 ft | 383 kts | 5° |
| 2026-05-07 21:45 | 11.03366 | -85.52472 | 17347 ft | 386 kts | 5° |
| 2026-05-07 21:45 | 11.06063 | -85.52358 | 17856 ft | 389 kts | 5° |
| 2026-05-07 21:45 | 11.08778 | -85.52242 | 18339 ft | 392 kts | 5° |
| 2026-05-07 21:45 | 11.11516 | -85.52126 | 18784 ft | 395 kts | 5° |
| 2026-05-07 21:46 | 11.14270 | -85.52010 | 19205 ft | 397 kts | 5° |
| 2026-05-07 21:46 | 11.17049 | -85.51893 | 19633 ft | 400 kts | 5° |
| 2026-05-07 21:46 | 11.19826 | -85.51703 | 20034 ft | 402 kts | 8° |
| 2026-05-07 21:46 | 11.22617 | -85.51429 | 20453 ft | 404 kts | 9° |
| 2026-05-07 21:47 | 11.25426 | -85.51133 | 20849 ft | 406 kts | 9° |
| 2026-05-07 21:47 | 11.28248 | -85.50841 | 21236 ft | 409 kts | 8° |
| 2026-05-07 21:47 | 11.31086 | -85.50559 | 21644 ft | 411 kts | 8° |
| 2026-05-07 21:47 | 11.33940 | -85.50285 | 22033 ft | 413 kts | 8° |
| 2026-05-07 21:48 | 11.36814 | -85.50015 | 22401 ft | 416 kts | 7° |
| 2026-05-07 21:48 | 11.39722 | -85.50164 | 22709 ft | 427 kts | 349° |
| 2026-05-07 21:48 | 11.42540 | -85.51218 | 23089 ft | 433 kts | 340° |
| 2026-05-07 21:48 | 11.45271 | -85.52441 | 23467 ft | 437 kts | 339° |
| 2026-05-07 21:49 | 11.48053 | -85.53722 | 23731 ft | 440 kts | 339° |
| 2026-05-07 21:49 | 11.50843 | -85.55011 | 24044 ft | 441 kts | 339° |
| 2026-05-07 21:49 | 11.53644 | -85.56295 | 24362 ft | 442 kts | 339° |
| 2026-05-07 21:49 | 11.56459 | -85.57574 | 24650 ft | 443 kts | 339° |
| 2026-05-07 21:50 | 11.59291 | -85.58851 | 24921 ft | 445 kts | 339° |
| 2026-05-07 21:50 | 11.62140 | -85.60128 | 25189 ft | 447 kts | 339° |
| 2026-05-07 21:50 | 11.64031 | -85.60973 | 25374 ft | 448 kts | 339° |
| 2026-05-07 21:50 | 11.66897 | -85.62252 | 25657 ft | 450 kts | 339° |
| 2026-05-07 21:51 | 11.69777 | -85.63536 | 25934 ft | 451 kts | 339° |
| 2026-05-07 21:51 | 11.73593 | -85.65238 | 26274 ft | 454 kts | 339° |
| 2026-05-07 21:51 | 11.75554 | -85.66113 | 26451 ft | 455 kts | 339° |
| 2026-05-07 21:51 | 11.78464 | -85.67411 | 26712 ft | 457 kts | 339° |
| 2026-05-07 21:52 | 11.81352 | -85.68700 | 26973 ft | 459 kts | 339° |
| 2026-05-07 21:52 | 11.84278 | -85.70007 | 27228 ft | 460 kts | 339° |
| 2026-05-07 21:52 | 11.87215 | -85.71319 | 27484 ft | 462 kts | 339° |
| 2026-05-07 21:52 | 11.90168 | -85.72639 | 27735 ft | 464 kts | 339° |
| 2026-05-07 21:53 | 11.93140 | -85.73967 | 27993 ft | 466 kts | 339° |
| 2026-05-07 21:53 | 11.96115 | -85.75297 | 28239 ft | 468 kts | 339° |
| 2026-05-07 21:53 | 11.99099 | -85.76631 | 28481 ft | 469 kts | 339° |
| 2026-05-07 21:53 | 12.02080 | -85.77965 | 28715 ft | 471 kts | 339° |
| 2026-05-07 21:54 | 12.05101 | -85.79316 | 28928 ft | 474 kts | 339° |
| 2026-05-07 21:54 | 12.08124 | -85.80669 | 29147 ft | 476 kts | 338° |
| 2026-05-07 21:54 | 12.11166 | -85.82030 | 29391 ft | 477 kts | 338° |
| 2026-05-07 21:54 | 12.14172 | -85.83376 | 29628 ft | 478 kts | 338° |
| 2026-05-07 21:55 | 12.17233 | -85.84747 | 29844 ft | 480 kts | 338° |
| 2026-05-07 21:55 | 12.20296 | -85.86119 | 30034 ft | 482 kts | 338° |
| 2026-05-07 21:55 | 12.23375 | -85.87499 | 30273 ft | 482 kts | 338° |
| 2026-05-07 21:55 | 12.26438 | -85.88872 | 30583 ft | 480 kts | 338° |
| 2026-05-07 21:56 | 12.29492 | -85.90242 | 30921 ft | 479 kts | 338° |
| 2026-05-07 21:56 | 12.32540 | -85.91609 | 31241 ft | 477 kts | 338° |
| 2026-05-07 21:56 | 12.35580 | -85.92972 | 31538 ft | 477 kts | 338° |
| 2026-05-07 21:56 | 12.38618 | -85.94335 | 31835 ft | 477 kts | 338° |
| 2026-05-07 21:57 | 12.41655 | -85.95697 | 32129 ft | 477 kts | 338° |
| 2026-05-07 21:57 | 12.44690 | -85.97059 | 32467 ft | 476 kts | 338° |
| 2026-05-07 21:57 | 12.47719 | -85.98419 | 32807 ft | 475 kts | 338° |
| 2026-05-07 21:57 | 12.50739 | -85.99775 | 33151 ft | 474 kts | 338° |
| 2026-05-07 21:58 | 12.53756 | -86.01130 | 33530 ft | 473 kts | 338° |
| 2026-05-07 21:58 | 12.56769 | -86.02483 | 33831 ft | 473 kts | 338° |
| 2026-05-07 21:58 | 12.59779 | -86.03836 | 34110 ft | 472 kts | 338° |
| 2026-05-07 21:58 | 12.62778 | -86.05183 | 34471 ft | 469 kts | 338° |
| 2026-05-07 21:59 | 12.65761 | -86.06523 | 34773 ft | 467 kts | 339° |
| 2026-05-07 21:59 | 12.68732 | -86.07857 | 35091 ft | 465 kts | 338° |
| 2026-05-07 21:59 | 12.71649 | -86.09167 | 35442 ft | 462 kts | 338° |
| 2026-05-07 21:59 | 12.74589 | -86.10490 | 35713 ft | 461 kts | 336° |
| 2026-05-07 22:00 | 12.77500 | -86.11800 | 35874 ft | 454 kts | 338° |
| 2026-05-07 22:00 | 12.80383 | -86.13099 | 35856 ft | 452 kts | 338° |
| 2026-05-07 22:00 | 12.86166 | -86.15707 | 35876 ft | 456 kts | 337° |
| 2026-05-07 22:01 | 12.92018 | -86.18342 | 35882 ft | 462 kts | 338° |
| 2026-05-07 22:01 | 12.97925 | -86.21007 | 35874 ft | 465 kts | 338° |
| 2026-05-07 22:02 | 13.03854 | -86.23681 | 35885 ft | 464 kts | 338° |
| 2026-05-07 22:02 | 13.09731 | -86.26333 | 35872 ft | 457 kts | 337° |
| 2026-05-07 22:03 | 13.15490 | -86.28934 | 35874 ft | 453 kts | 338° |
| 2026-05-07 22:03 | 13.21247 | -86.31534 | 35882 ft | 452 kts | 338° |
| 2026-05-07 22:04 | 13.27041 | -86.34153 | 35895 ft | 458 kts | 337° |
| 2026-05-07 22:04 | 13.32908 | -86.36805 | 35886 ft | 462 kts | 338° |
| 2026-05-07 22:05 | 13.38804 | -86.39476 | 35891 ft | 463 kts | 336° |
| 2026-05-07 22:05 | 13.44707 | -86.42150 | 35902 ft | 463 kts | 338° |
| 2026-05-07 22:06 | 13.50605 | -86.44821 | 35894 ft | 463 kts | 336° |
| 2026-05-07 22:06 | 13.56494 | -86.47490 | 35878 ft | 462 kts | 337° |
| 2026-05-07 22:07 | 13.62354 | -86.50146 | 35893 ft | 459 kts | 336° |
| 2026-05-07 22:07 | 13.68192 | -86.52795 | 35890 ft | 457 kts | 337° |
| 2026-05-07 22:08 | 13.74006 | -86.55435 | 35885 ft | 455 kts | 337° |
| 2026-05-07 22:08 | 13.79791 | -86.58061 | 35885 ft | 454 kts | 338° |
| 2026-05-07 22:09 | 13.84840 | -86.60355 | 35902 ft | 454 kts | 337° |
| 2026-05-07 22:09 | 13.90625 | -86.62988 | 35898 ft | 454 kts | 336° |
| 2026-05-07 22:10 | 13.96413 | -86.65620 | 35926 ft | 455 kts | 337° |
| 2026-05-07 22:10 | 14.02203 | -86.68256 | 35935 ft | 455 kts | 337° |
| 2026-05-07 22:11 | 14.08015 | -86.70903 | 35952 ft | 457 kts | 337° |
| 2026-05-07 22:11 | 14.13834 | -86.73551 | 35952 ft | 457 kts | 337° |
| 2026-05-07 22:12 | 14.19660 | -86.76208 | 35976 ft | 458 kts | 336° |
| 2026-05-07 22:12 | 14.25486 | -86.78866 | 35978 ft | 458 kts | 336° |
| 2026-05-07 22:13 | 14.31280 | -86.81513 | 35990 ft | 458 kts | 336° |
| 2026-05-07 22:13 | 14.37097 | -86.84170 | 35986 ft | 457 kts | 337° |
| 2026-05-07 22:14 | 14.42906 | -86.86827 | 35984 ft | 456 kts | 336° |
| 2026-05-07 22:14 | 14.48700 | -86.89475 | 35974 ft | 455 kts | 336° |
| 2026-05-07 22:15 | 14.54474 | -86.92116 | 35976 ft | 454 kts | 336° |
| 2026-05-07 22:15 | 14.60216 | -86.94745 | 35976 ft | 453 kts | 336° |
| 2026-05-07 22:16 | 14.65980 | -86.97385 | 35967 ft | 453 kts | 336° |
| 2026-05-07 22:16 | 14.71754 | -87.00032 | 35968 ft | 454 kts | 336° |
| 2026-05-07 22:17 | 14.77537 | -87.02682 | 35970 ft | 455 kts | 336° |
| 2026-05-07 22:17 | 14.83338 | -87.05343 | 35977 ft | 456 kts | 337° |
| 2026-05-07 22:18 | 14.92013 | -87.09329 | 35961 ft | 458 kts | 336° |
| 2026-05-07 22:19 | 14.97851 | -87.12013 | 35931 ft | 459 kts | 336° |
| 2026-05-07 22:19 | 15.03692 | -87.14699 | 35933 ft | 459 kts | 336° |
| 2026-05-07 22:20 | 15.09522 | -87.17379 | 35925 ft | 458 kts | 336° |
| 2026-05-07 22:20 | 15.15349 | -87.20062 | 35928 ft | 458 kts | 336° |
| 2026-05-07 22:21 | 15.21122 | -87.22724 | 35914 ft | 457 kts | 337° |
| 2026-05-07 22:21 | 15.26945 | -87.25409 | 35908 ft | 457 kts | 336° |
| 2026-05-07 22:22 | 15.32743 | -87.28083 | 35916 ft | 456 kts | 336° |
| 2026-05-07 22:22 | 15.38527 | -87.30752 | 35911 ft | 455 kts | 336° |
| 2026-05-07 22:23 | 15.44312 | -87.33423 | 35899 ft | 454 kts | 336° |
| 2026-05-07 22:23 | 15.50086 | -87.36091 | 35885 ft | 453 kts | 336° |
| 2026-05-07 22:24 | 15.55815 | -87.38739 | 35890 ft | 453 kts | 336° |
| 2026-05-07 22:24 | 15.61587 | -87.41409 | 35877 ft | 454 kts | 336° |
| 2026-05-07 22:25 | 15.67370 | -87.44086 | 35866 ft | 455 kts | 335° |
| 2026-05-07 22:25 | 15.73157 | -87.46767 | 35856 ft | 456 kts | 336° |
| 2026-05-07 22:26 | 15.78954 | -87.49454 | 35860 ft | 456 kts | 335° |
| 2026-05-07 22:26 | 15.84750 | -87.52142 | 35857 ft | 456 kts | 335° |
| 2026-05-07 22:27 | 15.90525 | -87.54821 | 35857 ft | 456 kts | 335° |
| 2026-05-07 22:27 | 15.96320 | -87.57512 | 35856 ft | 456 kts | 336° |
| 2026-05-07 22:28 | 16.02117 | -87.60206 | 35866 ft | 456 kts | 335° |
| 2026-05-07 22:28 | 16.07902 | -87.62896 | 35853 ft | 455 kts | 335° |
| 2026-05-07 22:29 | 16.13669 | -87.65578 | 35851 ft | 454 kts | 335° |